Aviation Digital Data Service (ADDS)

Output produced by METARs form (0111 UTC 25 March 2019)
found at http://www.aviationweather.gov/metar/data/
 
METAR text: LFCK 250100Z AUTO 03004KT CAVOK 06/02 Q1024
Conditions at: LFCK (CASTRES-MAZAMET , FR) observed 0100 UTC 25 March 2019
Temperature: 6.0°C (43°F)
Dewpoint: 2.0°C (36°F) [RH = 75%]
Pressure (altimeter): 30.24 inches Hg (1024.0 mb)
Winds: from the NNE (30 degrees) at 5 MPH (4 knots; 2.1 m/s)
Visibility: 6 or more miles (10+ km)
Ceiling: ceiling and visibility are OK
Clouds: unknown
Weather: no significant weather observed at this time

Forecast for: LFCK (CASTRES-MAZAMET , FR)
Text: TAF LFCK 241700Z 2418/2503 28008KT CAVOK
Forecast period: 1800 to 2000 UTC 24 March 2019
Forecast type: FROM: standard forecast or significant change
Winds: from the W (280 degrees) at 9 MPH (8 knots; 4.1 m/s)
Visibility: 6 or more miles 10+ km)
Ceiling: unknown
Clouds: missing
Weather: NSW  (no significant weather)
Text: BECMG 2420/2423 VRB03KT
Forecast period: 2000 UTC 24 March 2019 to 0300 UTC 25 March 2019
Forecast type: BECOMING: Conditions expected to become as follows by 2300 UTC 24 March 2019
Winds: variable direction winds at 3 MPH (3 knots; 1.5 m/s)
Visibility: 6 or more miles 10+ km)
Ceiling: unknown
Clouds: missing
Weather: NSW  (no significant weather)